Time;durP1;ratioP1;P1;durP2;ratioP2;P2;SDS_P1;SDS_P2;PMS_P1;PMS_P2;Temp;Humidity;BMP_temperature;BMP_pressure;BME280_temperature;BME280_humidity;BME280_pressure;Samples;Min_cycle;Max_cycle;Signal;HPM_P1;HPM_P2
2023/09/12 00:04:25;;;;;;;22.00;16.60;;;25.00;93.90;;;;;;10507634;28;20403;-66
2023/09/12 00:09:27;;;;;;;19.15;14.95;;;24.90;93.90;;;;;;10504295;28;20915;-65
2023/09/12 00:14:28;;;;;;;20.85;15.98;;;24.90;94.00;;;;;;10500744;28;20454;-65
2023/09/12 00:19:28;;;;;;;19.98;15.73;;;24.90;94.00;;;;;;10503067;28;21018;-65
2023/09/12 00:24:29;;;;;;;20.93;16.07;;;24.90;94.00;;;;;;10510593;28;20412;-65
2023/09/12 00:29:30;;;;;;;21.33;16.20;;;24.90;94.10;;;;;;10504023;28;21429;-65
2023/09/12 00:34:30;;;;;;;21.75;16.55;;;24.80;94.10;;;;;;10513579;28;21136;-64
2023/09/12 00:39:31;;;;;;;21.30;15.80;;;24.80;94.10;;;;;;10501856;28;20408;-66
2023/09/12 00:44:32;;;;;;;20.97;15.57;;;24.80;94.10;;;;;;10506259;28;20724;-65
2023/09/12 00:49:33;;;;;;;19.63;14.57;;;24.80;94.10;;;;;;10504963;28;20407;-65
2023/09/12 00:54:34;;;;;;;19.85;15.52;;;24.70;94.10;;;;;;10510058;28;20416;-65
2023/09/12 00:59:35;;;;;;;20.77;15.47;;;24.70;94.10;;;;;;10506055;28;20395;-65
2023/09/12 01:04:36;;;;;;;19.30;15.20;;;24.70;94.10;;;;;;10511238;28;20406;-65
2023/09/12 01:09:37;;;;;;;19.03;15.03;;;24.70;94.20;;;;;;10507708;28;20561;-66
2023/09/12 01:14:38;;;;;;;21.40;15.77;;;24.70;94.20;;;;;;10493771;28;20415;-65
2023/09/12 01:19:38;;;;;;;20.13;15.75;;;24.60;94.20;;;;;;10505456;28;20396;-65
2023/09/12 01:25:06;;;;;;;21.40;15.73;;;24.60;94.20;;;;;;10502895;28;20434;-64
2023/09/12 01:30:08;;;;;;;20.95;15.75;;;24.60;94.20;;;;;;10493168;28;20455;-64
2023/09/12 01:35:09;;;;;;;22.52;15.77;;;24.50;94.20;;;;;;10506291;28;20879;-65
2023/09/12 01:40:12;;;;;;;21.30;15.75;;;24.50;94.20;;;;;;10507250;28;20418;-66
2023/09/12 01:45:17;;;;;;;20.98;15.80;;;24.50;94.30;;;;;;10502871;28;20402;-65
2023/09/12 01:50:20;;;;;;;21.10;15.40;;;24.50;94.30;;;;;;10499014;28;20394;-65
2023/09/12 01:55:22;;;;;;;20.40;15.00;;;24.50;94.30;;;;;;10508670;28;20424;-65
2023/09/12 02:00:23;;;;;;;19.92;15.10;;;24.50;94.30;;;;;;10500528;28;20404;-64
2023/09/12 02:05:29;;;;;;;20.05;15.80;;;24.40;94.30;;;;;;10508128;28;20397;-65
2023/09/12 02:10:30;;;;;;;21.15;15.70;;;24.40;94.20;;;;;;10503531;28;20390;-65
2023/09/12 02:15:31;;;;;;;21.07;15.37;;;24.30;94.20;;;;;;10500439;28;20497;-65
2023/09/12 02:20:33;;;;;;;20.17;15.17;;;24.40;94.20;;;;;;10505747;28;20393;-66
2023/09/12 02:25:33;;;;;;;21.17;15.33;;;24.40;94.20;;;;;;10508678;28;20407;-64
2023/09/12 02:30:34;;;;;;;19.83;15.13;;;24.30;94.20;;;;;;10504028;28;20835;-65
2023/09/12 02:35:34;;;;;;;20.83;15.52;;;24.30;94.20;;;;;;10492562;28;20414;-65
2023/09/12 02:40:35;;;;;;;20.70;14.90;;;24.30;94.20;;;;;;10499293;28;20728;-65
2023/09/12 02:45:36;;;;;;;20.57;15.53;;;24.20;94.20;;;;;;10486807;28;20411;-65
2023/09/12 02:50:36;;;;;;;21.20;15.40;;;24.20;94.30;;;;;;10485284;28;20403;-65
2023/09/12 02:55:43;;;;;;;24.02;16.30;;;24.20;94.30;;;;;;10488774;28;20395;-65
2023/09/12 03:00:43;;;;;;;22.07;16.47;;;24.20;94.30;;;;;;10499272;28;20389;-66
2023/09/12 03:05:44;;;;;;;23.17;17.30;;;24.20;94.30;;;;;;10496145;28;20930;-65
2023/09/12 03:10:52;;;;;;;24.47;18.07;;;24.20;94.40;;;;;;10492211;28;20402;-65
2023/09/12 03:15:53;;;;;;;23.70;17.17;;;24.10;94.40;;;;;;10493644;28;20435;-64
2023/09/12 03:20:53;;;;;;;23.77;17.13;;;24.10;94.40;;;;;;10491345;28;20490;-66
2023/09/12 03:25:54;;;;;;;22.20;16.60;;;24.10;94.50;;;;;;10493225;28;20987;-64
2023/09/12 03:31:07;;;;;;;23.80;17.45;;;24.10;94.50;;;;;;10490983;28;20427;-64
2023/09/12 03:36:08;;;;;;;25.05;17.70;;;24.10;94.50;;;;;;10493380;28;20419;-64
2023/09/12 03:41:10;;;;;;;23.13;17.23;;;24.10;94.50;;;;;;10507082;28;20678;-65
2023/09/12 03:46:10;;;;;;;22.00;16.90;;;24.00;94.50;;;;;;10495278;28;20872;-65
2023/09/12 03:51:12;;;;;;;22.48;17.00;;;24.80;94.70;;;;;;10494857;28;20513;-65
2023/09/12 03:56:14;;;;;;;23.45;17.00;;;24.00;94.50;;;;;;10492437;28;20408;-65
2023/09/12 04:01:14;;;;;;;24.83;17.60;;;24.00;94.50;;;;;;10489889;28;20437;-65
2023/09/12 04:06:15;;;;;;;23.70;17.33;;;24.00;94.60;;;;;;10490881;28;20431;-64
2023/09/12 04:11:15;;;;;;;22.80;16.67;;;24.00;94.60;;;;;;10497035;28;20402;-66
2023/09/12 04:16:16;;;;;;;23.90;17.80;;;23.90;94.60;;;;;;10490569;28;20973;-65
2023/09/12 04:21:17;;;;;;;23.27;17.03;;;23.90;94.60;;;;;;10486784;28;20408;-65
2023/09/12 04:26:17;;;;;;;21.97;16.87;;;23.90;94.60;;;;;;10479105;28;20968;-65
2023/09/12 04:31:18;;;;;;;23.88;17.38;;;23.80;94.50;;;;;;10492320;28;20400;-65
2023/09/12 04:36:19;;;;;;;23.00;16.85;;;23.80;94.60;;;;;;10498429;28;20414;-65
2023/09/12 04:41:20;;;;;;;23.25;17.00;;;23.80;94.60;;;;;;10495039;28;20394;-66
2023/09/12 04:46:21;;;;;;;22.00;16.57;;;23.80;94.60;;;;;;10497514;28;20479;-66
2023/09/12 04:51:22;;;;;;;21.10;16.53;;;23.80;94.60;;;;;;10498607;28;20396;-64
2023/09/12 04:56:25;;;;;;;21.70;16.47;;;23.80;94.60;;;;;;10501647;28;20402;-65
2023/09/12 05:01:26;;;;;;;21.13;16.10;;;23.80;94.60;;;;;;10486618;28;20395;-64
2023/09/12 05:06:27;;;;;;;20.83;15.83;;;23.80;94.90;;;;;;10503481;28;20399;-64
2023/09/12 05:11:27;;;;;;;20.00;15.50;;;23.70;94.50;;;;;;10503116;28;20418;-64
2023/09/12 05:16:28;;;;;;;20.57;15.53;;;23.70;94.50;;;;;;10497789;28;20410;-66
2023/09/12 05:21:28;;;;;;;21.47;15.37;;;23.70;94.60;;;;;;10492517;28;20898;-69
2023/09/12 05:26:29;;;;;;;20.88;15.50;;;23.60;94.70;;;;;;10497882;28;20407;-66
2023/09/12 05:31:31;;;;;;;21.20;15.40;;;23.60;94.70;;;;;;10497864;28;20395;-66
2023/09/12 05:36:32;;;;;;;19.70;14.55;;;23.60;94.70;;;;;;10500146;28;20406;-69
2023/09/12 05:41:33;;;;;;;19.40;14.52;;;23.60;94.60;;;;;;10490126;28;20420;-67
2023/09/12 05:46:34;;;;;;;19.83;14.95;;;23.60;94.60;;;;;;10487865;28;20411;-67
2023/09/12 05:51:34;;;;;;;18.37;14.17;;;23.60;94.50;;;;;;10486721;28;20747;-67
2023/09/12 05:56:35;;;;;;;18.67;14.47;;;23.60;94.50;;;;;;10488593;28;20812;-66
2023/09/12 06:01:36;;;;;;;18.10;13.82;;;23.60;94.50;;;;;;10484186;28;20409;-64
2023/09/12 06:06:36;;;;;;;17.93;13.80;;;23.60;94.50;;;;;;10493687;28;20402;-66
2023/09/12 06:11:37;;;;;;;18.90;13.97;;;23.60;94.50;;;;;;10491383;28;20893;-68
2023/09/12 06:16:38;;;;;;;18.67;13.83;;;23.60;94.50;;;;;;10507590;28;20411;-69
2023/09/12 06:21:38;;;;;;;19.30;13.97;;;23.50;94.40;;;;;;10499764;28;20431;-68
2023/09/12 06:26:39;;;;;;;23.30;16.33;;;23.50;94.40;;;;;;10502010;28;20539;-66
2023/09/12 06:31:43;;;;;;;20.73;15.27;;;23.50;94.60;;;;;;10500917;28;20407;-68
2023/09/12 06:36:45;;;;;;;21.42;15.43;;;23.50;94.60;;;;;;10493006;28;20809;-68
2023/09/12 06:41:45;;;;;;;22.38;15.98;;;23.50;94.60;;;;;;10486738;28;20423;-68
2023/09/12 06:46:46;;;;;;;20.17;15.27;;;23.50;94.60;;;;;;10498878;28;20405;-68
2023/09/12 06:51:46;;;;;;;21.20;15.90;;;23.50;94.60;;;;;;10505459;28;20398;-66
2023/09/12 06:56:47;;;;;;;21.27;15.33;;;23.50;94.60;;;;;;10498722;28;20982;-67
2023/09/12 07:01:48;;;;;;;20.10;15.63;;;23.50;94.50;;;;;;10500149;28;20384;-68
2023/09/12 07:06:48;;;;;;;21.05;15.10;;;23.50;94.50;;;;;;10503861;28;20401;-66
2023/09/12 07:11:53;;;;;;;21.40;15.67;;;23.60;94.50;;;;;;10497483;28;20771;-67
2023/09/12 07:16:53;;;;;;;21.37;15.17;;;23.60;94.40;;;;;;10493998;28;20404;-67
2023/09/12 07:21:56;;;;;;;20.37;15.50;;;23.60;94.40;;;;;;10501234;28;20396;-68
2023/09/12 07:26:58;;;;;;;20.40;14.93;;;23.60;94.40;;;;;;10497721;28;20756;-67
2023/09/12 07:31:58;;;;;;;22.15;15.65;;;23.60;94.40;;;;;;10497108;28;20402;-68
2023/09/12 07:36:59;;;;;;;19.95;14.55;;;23.60;94.40;;;;;;10499929;28;20415;-67
2023/09/12 07:42:00;;;;;;;19.83;14.77;;;23.60;94.30;;;;;;10490353;28;20468;-66
2023/09/12 07:47:01;;;;;;;21.48;15.38;;;23.60;94.30;;;;;;10493901;28;20402;-67
2023/09/12 07:52:02;;;;;;;24.00;16.70;;;23.60;94.30;;;;;;10507933;28;20819;-65
2023/09/12 07:57:07;;;;;;;23.95;16.70;;;23.50;94.60;;;;;;10496546;28;20416;-64
2023/09/12 08:02:08;;;;;;;22.58;16.27;;;23.50;94.70;;;;;;10500994;28;20386;-66
2023/09/12 08:07:09;;;;;;;22.07;15.53;;;23.50;94.60;;;;;;10505843;28;20416;-65
2023/09/12 08:12:09;;;;;;;23.60;16.07;;;23.50;94.50;;;;;;10498757;28;20442;-65
2023/09/12 08:17:10;;;;;;;20.57;14.83;;;23.60;94.50;;;;;;10506616;28;20417;-66
2023/09/12 08:22:12;;;;;;;22.90;15.90;;;23.60;94.50;;;;;;10504161;28;20518;-67
2023/09/12 08:27:13;;;;;;;21.27;14.65;;;23.60;94.50;;;;;;10500263;28;20406;-66
2023/09/12 08:32:14;;;;;;;21.20;15.20;;;23.60;94.40;;;;;;10498658;28;20748;-67
2023/09/12 08:37:14;;;;;;;20.83;14.90;;;23.60;94.40;;;;;;10491281;28;20817;-65
2023/09/12 08:42:16;;;;;;;21.13;15.03;;;23.60;94.40;;;;;;10494170;28;20399;-66
2023/09/12 08:47:22;;;;;;;20.92;15.30;;;23.60;94.30;;;;;;10482391;28;20959;-66
2023/09/12 08:52:22;;;;;;;20.75;15.63;;;23.60;94.30;;;;;;10495085;28;20399;-66
2023/09/12 08:57:24;;;;;;;22.17;16.27;;;23.60;94.30;;;;;;10491408;28;20403;-66
2023/09/12 09:02:24;;;;;;;20.47;15.50;;;23.60;94.40;;;;;;10502037;28;20903;-65
2023/09/12 09:07:26;;;;;;;21.87;16.07;;;23.60;94.40;;;;;;10501434;28;20411;-66
2023/09/12 09:12:27;;;;;;;23.02;15.48;;;23.60;94.40;;;;;;10502589;28;20758;-66
2023/09/12 09:17:28;;;;;;;19.57;14.70;;;23.70;94.30;;;;;;10495601;28;20407;-66
2023/09/12 09:22:29;;;;;;;20.30;14.83;;;23.70;94.30;;;;;;10503751;28;20395;-66
2023/09/12 09:27:34;;;;;;;20.37;14.70;;;23.70;94.30;;;;;;10500778;28;20403;-66
2023/09/12 09:32:35;;;;;;;21.63;15.52;;;23.80;94.20;;;;;;10490547;28;20433;-65
2023/09/12 09:37:35;;;;;;;21.13;15.93;;;23.80;94.30;;;;;;10502965;28;20412;-66
2023/09/12 09:42:37;;;;;;;21.88;15.43;;;23.80;94.30;;;;;;10493405;28;20418;-66
2023/09/12 09:47:38;;;;;;;21.42;15.45;;;23.80;94.30;;;;;;10495600;28;20395;-66
2023/09/12 09:52:38;;;;;;;20.60;15.20;;;23.90;94.30;;;;;;10498278;28;20907;-66
2023/09/12 09:57:39;;;;;;;22.10;15.93;;;23.90;94.20;;;;;;10498325;28;20454;-64
2023/09/12 10:02:42;;;;;;;22.37;15.60;;;24.00;94.20;;;;;;10503966;28;20452;-65
2023/09/12 10:07:45;;;;;;;21.23;15.30;;;24.10;94.20;;;;;;10500359;28;20393;-67
2023/09/12 10:12:53;;;;;;;20.00;14.68;;;24.10;94.10;;;;;;10498605;28;20397;-65
2023/09/12 10:17:59;;;;;;;17.95;13.98;;;24.20;94.10;;;;;;10499590;28;20549;-66
2023/09/12 10:23:15;;;;;;;18.97;14.03;;;24.20;94.10;;;;;;10489333;28;20397;-66
2023/09/12 10:28:17;;;;;;;18.95;13.65;;;24.20;94.00;;;;;;10492717;28;20423;-66
2023/09/12 10:33:18;;;;;;;18.85;13.32;;;24.30;94.00;;;;;;10487598;28;20424;-66
2023/09/12 10:38:23;;;;;;;18.60;13.67;;;24.30;94.00;;;;;;10501912;28;20407;-65
2023/09/12 10:43:26;;;;;;;16.48;12.85;;;24.30;94.10;;;;;;10496836;28;20490;-66
2023/09/12 10:48:26;;;;;;;18.63;13.30;;;24.30;94.00;;;;;;10493072;28;20479;-66
2023/09/12 10:53:30;;;;;;;16.42;12.35;;;24.30;94.10;;;;;;10502143;28;20729;-66
2023/09/12 10:58:30;;;;;;;17.17;12.77;;;24.30;94.10;;;;;;10509458;28;20413;-66
2023/09/12 11:03:31;;;;;;;17.40;12.97;;;24.30;94.00;;;;;;10506296;28;20773;-64
2023/09/12 11:08:40;;;;;;;16.67;12.63;;;24.40;94.00;;;;;;10513067;28;20506;-64
2023/09/12 11:13:41;;;;;;;15.65;12.38;;;24.40;94.00;;;;;;10504170;28;20431;-64
2023/09/12 11:19:20;;;;;;;16.42;12.10;;;24.50;93.90;;;;;;10511338;28;20490;-66
2023/09/12 11:24:21;;;;;;;15.57;11.95;;;24.50;93.90;;;;;;10500149;28;20399;-63
2023/09/12 11:29:22;;;;;;;15.75;11.85;;;24.60;93.80;;;;;;10494040;28;20409;-66
2023/09/12 11:34:29;;;;;;;15.32;12.05;;;24.60;93.80;;;;;;10485478;28;20447;-66
2023/09/12 11:39:35;;;;;;;15.27;11.70;;;24.70;93.70;;;;;;10506441;28;20398;-66
2023/09/12 11:44:36;;;;;;;14.68;11.60;;;24.80;93.90;;;;;;10501633;28;20994;-65
2023/09/12 11:49:41;;;;;;;15.68;12.07;;;24.70;93.60;;;;;;10493440;28;20472;-65
2023/09/12 11:54:42;;;;;;;14.98;11.98;;;24.80;93.60;;;;;;10496615;28;20396;-66
2023/09/12 11:59:48;;;;;;;15.88;11.73;;;24.80;93.60;;;;;;10501974;28;20895;-66
2023/09/12 12:04:50;;;;;;;13.88;11.48;;;24.90;93.60;;;;;;10503303;28;20398;-66
2023/09/12 12:09:50;;;;;;;14.33;11.30;;;25.00;93.50;;;;;;10510811;28;20813;-64
2023/09/12 12:14:51;;;;;;;15.47;10.80;;;25.00;93.50;;;;;;10502824;28;20406;-66
2023/09/12 12:19:52;;;;;;;13.40;10.95;;;25.10;93.50;;;;;;10501880;28;20531;-66
2023/09/12 12:24:53;;;;;;;14.53;11.30;;;25.10;93.50;;;;;;10500045;28;20472;-66
2023/09/12 12:29:55;;;;;;;14.10;10.93;;;25.10;93.50;;;;;;10502906;28;20820;-66
2023/09/12 12:34:55;;;;;;;13.02;10.60;;;25.00;93.50;;;;;;10500311;28;20754;-65
2023/09/12 12:39:57;;;;;;;12.63;10.50;;;25.10;93.60;;;;;;10500741;28;20416;-67
2023/09/12 12:44:57;;;;;;;12.65;9.98;;;25.10;93.60;;;;;;10517403;28;20400;-66
2023/09/12 12:49:58;;;;;;;12.60;9.70;;;25.10;93.50;;;;;;10499893;28;21004;-66
2023/09/12 12:55:25;;;;;;;12.98;9.95;;;25.10;93.50;;;;;;10493211;28;20407;-66
2023/09/12 13:00:26;;;;;;;12.57;9.60;;;25.20;93.40;;;;;;10482453;28;20405;-66
2023/09/12 13:05:31;;;;;;;11.73;9.60;;;25.20;93.40;;;;;;10483905;28;20406;-65
2023/09/12 13:10:32;;;;;;;11.53;8.90;;;25.30;93.50;;;;;;10494633;28;20394;-66
2023/09/12 13:15:32;;;;;;;10.27;8.90;;;25.30;93.40;;;;;;10484993;28;20959;-66
2023/09/12 13:20:33;;;;;;;10.73;9.00;;;25.30;93.40;;;;;;10483356;28;20404;-66
2023/09/12 13:25:34;;;;;;;10.60;9.02;;;25.30;93.50;;;;;;10487405;28;20401;-65
2023/09/12 13:30:34;;;;;;;10.50;9.00;;;25.40;93.50;;;;;;10487629;28;20429;-66
2023/09/12 13:35:35;;;;;;;10.40;8.03;;;25.40;93.40;;;;;;10489385;28;20554;-67
2023/09/12 13:40:39;;;;;;;9.77;8.30;;;25.50;93.30;;;;;;10485850;28;20484;-66
2023/09/12 13:45:40;;;;;;;9.80;7.85;;;25.60;93.30;;;;;;10486074;28;20455;-67
2023/09/12 13:50:43;;;;;;;9.20;7.95;;;25.60;93.20;;;;;;10491413;28;20458;-65
2023/09/12 13:55:43;;;;;;;9.57;8.35;;;25.70;93.20;;;;;;10488266;28;20417;-66
2023/09/12 14:00:44;;;;;;;10.23;7.95;;;25.80;93.00;;;;;;10478513;28;20919;-66
2023/09/12 14:05:44;;;;;;;11.27;8.33;;;25.80;92.90;;;;;;10489906;28;20439;-67
2023/09/12 14:10:45;;;;;;;8.93;7.70;;;25.90;92.80;;;;;;10486604;28;20401;-67
2023/09/12 14:15:46;;;;;;;9.75;7.90;;;25.90;92.80;;;;;;10480663;28;20442;-67
2023/09/12 14:20:47;;;;;;;8.98;7.43;;;26.00;92.70;;;;;;10487259;28;20893;-66
2023/09/12 14:25:47;;;;;;;9.50;7.90;;;26.00;92.70;;;;;;10492484;28;20812;-66
2023/09/12 14:30:49;;;;;;;9.10;7.83;;;25.90;92.80;;;;;;10488462;28;20398;-66
2023/09/12 14:35:50;;;;;;;9.17;8.10;;;25.90;92.90;;;;;;10495253;28;20409;-67
2023/09/12 14:40:53;;;;;;;11.03;8.03;;;25.90;92.90;;;;;;10498797;28;20440;-66
2023/09/12 14:45:54;;;;;;;10.15;7.80;;;25.90;92.80;;;;;;10494528;28;20477;-68
2023/09/12 14:50:55;;;;;;;10.93;8.00;;;26.00;92.80;;;;;;10495178;28;21758;-65
2023/09/12 14:55:55;;;;;;;10.27;7.83;;;26.00;92.90;;;;;;10490331;28;20423;-69
2023/09/12 15:00:58;;;;;;;9.63;7.90;;;25.90;92.90;;;;;;10498935;28;20440;-69
2023/09/12 15:05:58;;;;;;;9.27;7.57;;;25.90;93.10;;;;;;10492102;28;20993;-69
2023/09/12 15:10:59;;;;;;;9.83;7.63;;;25.90;93.20;;;;;;10508659;28;20391;-68
2023/09/12 15:16:00;;;;;;;9.48;7.28;;;25.90;93.00;;;;;;10499459;28;20877;-67
2023/09/12 15:21:00;;;;;;;8.75;7.00;;;25.80;92.80;;;;;;10501736;28;20454;-67
2023/09/12 15:26:01;;;;;;;10.33;8.23;;;25.80;92.80;;;;;;10499339;28;20412;-64
2023/09/12 15:31:03;;;;;;;8.90;7.40;;;25.80;93.00;;;;;;10496734;28;20849;-68
2023/09/12 15:36:03;;;;;;;9.40;7.75;;;25.90;92.90;;;;;;10490580;28;20424;-68
2023/09/12 15:41:07;;;;;;;10.93;7.97;;;25.90;92.80;;;;;;10496019;28;20429;-66
2023/09/12 15:46:08;;;;;;;10.53;7.97;;;26.00;92.80;;;;;;10495420;28;20396;-68
2023/09/12 15:51:08;;;;;;;10.83;8.00;;;26.00;93.00;;;;;;10498490;28;20456;-68
2023/09/12 15:56:09;;;;;;;9.52;7.90;;;25.90;93.00;;;;;;10496931;28;20408;-66
2023/09/12 16:01:10;;;;;;;9.27;7.13;;;25.90;93.10;;;;;;10498744;28;21199;-65
2023/09/12 16:06:10;;;;;;;8.50;7.13;;;25.90;93.10;;;;;;10502052;28;20844;-67
2023/09/12 16:11:11;;;;;;;9.13;7.43;;;25.90;93.20;;;;;;10501853;28;20474;-67
2023/09/12 16:16:11;;;;;;;8.57;7.03;;;25.80;93.20;;;;;;10502393;28;20455;-68
2023/09/12 16:21:12;;;;;;;10.30;6.63;;;25.80;93.00;;;;;;10499169;28;20403;-67
2023/09/12 16:26:13;;;;;;;8.43;6.10;;;25.80;93.10;;;;;;10489031;28;20400;-68
2023/09/12 16:31:14;;;;;;;6.93;6.03;;;25.80;92.80;;;;;;10487792;28;20410;-68
2023/09/12 16:36:14;;;;;;;6.90;5.57;;;25.70;92.70;;;;;;10504050;28;20926;-68
2023/09/12 16:41:15;;;;;;;7.70;5.80;;;25.70;92.60;;;;;;10493594;28;21122;-68
2023/09/12 16:46:16;;;;;;;7.00;5.67;;;25.70;92.60;;;;;;10492498;28;20402;-68
2023/09/12 16:51:16;;;;;;;4.40;3.33;;;25.60;91.90;;;;;;10501674;28;20815;-67
2023/09/12 16:56:17;;;;;;;4.78;3.03;;;25.40;90.60;;;;;;10487510;28;20413;-69
2023/09/12 17:01:18;;;;;;;6.93;4.03;;;25.10;90.80;;;;;;10494913;28;20482;-69
2023/09/12 17:06:18;;;;;;;8.13;5.10;;;24.90;91.30;;;;;;10496229;28;20408;-68
2023/09/12 17:11:21;;;;;;;8.33;4.97;;;24.70;92.10;;;;;;10509481;28;20893;-68
2023/09/12 17:16:22;;;;;;;8.20;5.30;;;24.50;92.60;;;;;;10509131;28;20466;-69
2023/09/12 17:21:23;;;;;;;9.00;6.40;;;24.40;93.10;;;;;;10497656;28;20393;-67
2023/09/12 17:26:23;;;;;;;13.55;7.90;;;24.20;93.80;;;;;;10491610;28;20403;-66
2023/09/12 17:31:24;;;;;;;10.33;6.30;;;24.00;94.40;;;;;;10503423;28;20390;-67
2023/09/12 17:36:25;;;;;;;8.93;5.70;;;24.00;94.60;;;;;;10489063;28;20412;-67
2023/09/12 17:41:25;;;;;;;7.53;5.07;;;24.20;94.50;;;;;;10499854;28;20406;-68
2023/09/12 17:46:26;;;;;;;6.90;4.57;;;24.40;94.50;;;;;;10493886;28;20896;-66
2023/09/12 17:51:27;;;;;;;6.15;4.30;;;24.50;94.10;;;;;;10496217;28;20393;-67
2023/09/12 17:56:27;;;;;;;7.97;4.80;;;24.60;94.00;;;;;;10480060;28;20442;-67
2023/09/12 18:01:28;;;;;;;5.43;4.27;;;24.60;93.90;;;;;;10484132;28;20502;-68
2023/09/12 18:06:31;;;;;;;6.17;4.20;;;24.70;93.80;;;;;;10489100;28;20964;-68
2023/09/12 18:11:32;;;;;;;7.45;4.60;;;24.70;93.80;;;;;;10490003;28;20455;-68
2023/09/12 18:16:32;;;;;;;6.47;4.43;;;24.70;93.70;;;;;;10500934;28;20913;-66
2023/09/12 18:21:33;;;;;;;6.60;4.35;;;24.70;93.70;;;;;;10485091;28;20403;-68
2023/09/12 18:26:34;;;;;;;6.47;4.22;;;24.80;93.70;;;;;;10496929;28;20541;-67
2023/09/12 18:31:34;;;;;;;5.27;4.33;;;24.70;93.70;;;;;;10492342;28;20410;-68
2023/09/12 18:36:35;;;;;;;5.10;4.20;;;24.70;93.60;;;;;;10488402;28;20417;-67
2023/09/12 18:41:37;;;;;;;6.63;4.53;;;24.70;93.60;;;;;;10504954;28;20425;-67
2023/09/12 18:46:40;;;;;;;5.93;4.43;;;24.70;93.70;;;;;;10496109;28;20397;-68
2023/09/12 18:51:41;;;;;;;6.00;4.40;;;24.70;93.70;;;;;;10507224;28;20395;-67
2023/09/12 18:56:42;;;;;;;5.60;4.37;;;24.70;93.70;;;;;;10491665;28;20435;-68
2023/09/12 19:01:43;;;;;;;5.43;4.30;;;24.70;93.70;;;;;;10484977;28;20695;-68
2023/09/12 19:06:45;;;;;;;7.10;4.70;;;24.70;93.70;;;;;;10496883;28;20398;-67
2023/09/12 19:11:50;;;;;;;5.53;4.70;;;24.70;93.70;;;;;;10491575;28;20840;-68
2023/09/12 19:16:54;;;;;;;5.55;4.60;;;24.70;93.70;;;;;;10486312;28;20445;-67
2023/09/12 19:21:56;;;;;;;5.63;4.53;;;24.70;93.70;;;;;;10488045;28;20442;-68
2023/09/12 19:26:57;;;;;;;5.30;4.37;;;24.70;93.70;;;;;;10494317;28;20922;-67
2023/09/12 19:31:57;;;;;;;5.50;4.50;;;24.60;93.70;;;;;;10494065;28;20405;-67
2023/09/12 19:36:58;;;;;;;5.20;4.68;;;24.60;93.70;;;;;;10494580;28;20403;-68
2023/09/12 19:41:59;;;;;;;6.47;4.90;;;24.60;93.70;;;;;;10495850;28;20391;-67
2023/09/12 19:46:59;;;;;;;6.47;5.00;;;24.60;93.70;;;;;;10492270;28;20732;-68
2023/09/12 19:52:00;;;;;;;5.37;4.63;;;24.50;94.00;;;;;;10500375;28;20398;-66
2023/09/12 19:57:01;;;;;;;5.68;4.80;;;24.50;93.80;;;;;;10491609;28;20418;-67
2023/09/12 20:02:01;;;;;;;5.72;4.97;;;24.50;93.80;;;;;;10488836;28;20409;-67
2023/09/12 20:07:03;;;;;;;5.25;4.60;;;24.50;93.80;;;;;;10498712;28;20816;-68
2023/09/12 20:12:04;;;;;;;7.43;4.97;;;24.50;93.80;;;;;;10492716;28;20498;-67
2023/09/12 20:17:05;;;;;;;7.00;4.75;;;24.50;93.80;;;;;;10495710;28;20408;-67
2023/09/12 20:22:05;;;;;;;5.80;4.63;;;24.40;93.70;;;;;;10511061;28;20400;-68
2023/09/12 20:27:06;;;;;;;6.17;4.70;;;24.50;93.80;;;;;;10494403;28;20402;-68
2023/09/12 20:32:07;;;;;;;5.20;4.53;;;24.40;93.80;;;;;;10495954;28;20460;-67
2023/09/12 20:37:08;;;;;;;6.10;4.80;;;24.40;93.70;;;;;;10491440;28;20785;-68
2023/09/12 20:42:09;;;;;;;6.05;4.65;;;24.40;93.70;;;;;;10490657;28;20910;-66
2023/09/12 20:47:10;;;;;;;5.00;4.50;;;24.40;93.80;;;;;;10488365;28;20395;-67
2023/09/12 20:52:10;;;;;;;6.33;4.50;;;24.30;93.70;;;;;;10489209;28;20482;-67
2023/09/12 20:57:11;;;;;;;5.70;4.70;;;24.30;93.80;;;;;;10484657;28;20422;-67
2023/09/12 21:02:12;;;;;;;5.70;4.47;;;24.30;93.70;;;;;;10480865;28;20402;-68
2023/09/12 21:07:13;;;;;;;6.10;4.70;;;24.30;93.70;;;;;;10490996;28;20854;-67
2023/09/12 21:12:13;;;;;;;5.63;4.72;;;24.30;93.70;;;;;;10498714;28;20403;-68
2023/09/12 21:17:14;;;;;;;5.13;4.53;;;24.30;93.80;;;;;;10498651;28;20521;-67
2023/09/12 21:22:14;;;;;;;5.73;4.53;;;24.20;93.70;;;;;;10487401;28;20413;-67
2023/09/12 21:27:15;;;;;;;4.97;4.30;;;24.20;93.70;;;;;;10493978;28;20417;-65
2023/09/12 21:32:16;;;;;;;4.53;4.00;;;24.20;93.80;;;;;;10493415;28;20444;-66
2023/09/12 21:37:17;;;;;;;5.90;4.17;;;24.20;93.80;;;;;;10496086;28;20493;-65
2023/09/12 21:42:19;;;;;;;5.80;4.00;;;24.20;93.80;;;;;;10495032;28;20481;-65
2023/09/12 21:47:19;;;;;;;5.18;3.97;;;24.10;93.80;;;;;;10489747;28;20429;-66
2023/09/12 21:52:20;;;;;;;4.40;3.58;;;24.10;93.80;;;;;;10496278;28;20489;-65
2023/09/12 21:57:21;;;;;;;6.05;4.40;;;24.10;93.80;;;;;;10499093;28;20414;-65
2023/09/12 22:02:23;;;;;;;4.32;3.67;;;24.10;93.80;;;;;;10493658;28;20400;-65
2023/09/12 22:07:23;;;;;;;4.25;3.55;;;24.10;93.80;;;;;;10497850;28;20455;-65
2023/09/12 22:12:24;;;;;;;5.73;4.10;;;24.00;93.70;;;;;;10496872;28;20952;-65
2023/09/12 22:17:25;;;;;;;5.30;3.80;;;24.00;93.80;;;;;;10492436;28;20407;-65
2023/09/12 22:22:25;;;;;;;4.90;3.73;;;24.00;93.80;;;;;;10491820;28;20384;-66
2023/09/12 22:27:26;;;;;;;4.40;3.60;;;24.00;93.80;;;;;;10491349;28;20498;-66
2023/09/12 22:32:27;;;;;;;4.37;3.57;;;24.00;93.80;;;;;;10500696;28;20393;-65
2023/09/12 22:37:28;;;;;;;5.30;3.85;;;24.00;93.80;;;;;;10488315;28;20411;-65
2023/09/12 22:42:28;;;;;;;4.38;3.58;;;24.00;93.80;;;;;;10496869;28;20393;-65
2023/09/12 22:47:29;;;;;;;4.13;3.63;;;23.90;93.80;;;;;;10493289;28;20400;-65
2023/09/12 22:52:29;;;;;;;5.13;4.17;;;23.90;93.80;;;;;;10491310;28;20387;-65
2023/09/12 22:57:31;;;;;;;4.60;3.80;;;23.90;93.80;;;;;;10496386;28;20546;-65
2023/09/12 23:02:31;;;;;;;4.30;3.50;;;23.90;93.90;;;;;;10504007;28;20401;-66
2023/09/12 23:07:34;;;;;;;4.80;3.60;;;23.90;93.90;;;;;;10510832;28;20402;-65
2023/09/12 23:12:34;;;;;;;4.70;3.60;;;23.80;93.80;;;;;;10511926;28;20400;-66
2023/09/12 23:17:35;;;;;;;3.70;3.30;;;23.80;93.90;;;;;;10502021;28;20419;-65
2023/09/12 23:22:36;;;;;;;4.83;3.53;;;23.80;93.90;;;;;;10502252;28;20399;-66
2023/09/12 23:27:36;;;;;;;5.27;3.70;;;23.80;93.90;;;;;;10489580;28;20426;-66
2023/09/12 23:32:37;;;;;;;4.10;3.63;;;23.80;93.90;;;;;;10494058;28;20510;-66
2023/09/12 23:37:38;;;;;;;4.90;3.55;;;23.80;93.90;;;;;;10491823;28;20406;-65
2023/09/12 23:42:39;;;;;;;4.32;3.38;;;23.70;93.90;;;;;;10490893;28;20448;-65
2023/09/12 23:47:40;;;;;;;4.43;3.60;;;23.70;93.90;;;;;;10491372;28;20529;-65
2023/09/12 23:52:41;;;;;;;3.87;3.23;;;23.70;93.90;;;;;;10493669;28;20435;-65
2023/09/12 23:57:41;;;;;;;4.93;3.77;;;23.70;94.00;;;;;;10495022;28;21023;-65
